createdAt,value
2023-04-18T03:57:52.243Z,6.55
2023-04-18T04:00:55.250Z,5.72
2023-04-18T04:03:57.835Z,6.15
2023-04-18T04:07:00.314Z,5.85
2023-04-18T04:10:02.868Z,6.30
2023-04-18T04:13:05.221Z,6.32
2023-04-18T04:16:08.892Z,6.18
2023-04-18T04:19:11.269Z,5.70
2023-04-18T04:22:14.450Z,6.25
2023-04-18T04:25:17.356Z,5.97
2023-04-18T04:28:23.404Z,6.03
2023-04-18T04:31:26.095Z,6.57
2023-04-18T04:34:28.480Z,5.80
2023-04-18T04:37:30.758Z,5.85
2023-04-18T04:40:34.339Z,5.82
2023-04-18T04:43:36.564Z,5.78
2023-04-18T04:46:40.352Z,6.78
2023-04-18T04:49:44.151Z,5.87
2023-04-18T04:52:46.557Z,6.22
2023-04-18T04:55:49.020Z,5.82
2023-04-18T04:58:53.363Z,6.43
2023-04-18T05:01:57.411Z,5.62
2023-04-18T05:04:59.932Z,6.43
2023-04-18T05:08:02.632Z,6.07
2023-04-18T05:11:05.222Z,6.53
2023-04-18T05:14:07.453Z,6.40
2023-04-18T05:17:09.854Z,6.37
2023-04-18T05:20:12.332Z,6.43
2023-04-18T05:23:14.666Z,6.70
2023-04-18T05:26:17.522Z,6.37
2023-04-18T05:29:19.955Z,6.37
2023-04-18T05:32:22.283Z,6.68
2023-04-18T05:35:24.672Z,6.97
2023-04-18T05:38:26.914Z,6.80
2023-04-18T05:41:29.325Z,7.30
2023-04-18T05:44:31.500Z,6.35
2023-04-18T05:47:34.012Z,6.95
2023-04-18T05:50:36.218Z,7.18
2023-04-18T05:53:39.080Z,6.53
2023-04-18T05:56:41.390Z,6.50
2023-04-18T05:59:45.354Z,6.03
2023-04-18T06:02:47.672Z,5.97
2023-04-18T06:05:50.363Z,6.37
2023-04-18T06:08:52.496Z,6.32
2023-04-18T06:11:54.867Z,6.53
2023-04-18T06:14:57.051Z,5.90
2023-04-18T06:17:59.633Z,5.97
2023-04-18T06:21:01.968Z,6.20
2023-04-18T06:24:04.411Z,5.43
2023-04-18T06:30:10.671Z,5.75
2023-04-18T06:33:12.808Z,5.10
2023-04-18T06:36:15.402Z,5.43
2023-04-18T06:39:17.619Z,5.00
2023-04-18T06:42:22.210Z,5.32
2023-04-18T06:45:24.759Z,5.05
2023-04-18T06:48:27.250Z,5.30
2023-04-18T06:51:29.491Z,5.00
2023-04-18T06:54:31.869Z,4.62
2023-04-18T06:57:34.046Z,4.85
2023-04-18T07:00:36.413Z,4.35
2023-04-18T07:03:38.841Z,4.57
2023-04-18T07:06:43.120Z,4.70
2023-04-18T07:09:45.425Z,5.10
2023-04-18T07:12:47.984Z,4.50
2023-04-18T07:15:50.202Z,4.93
2023-04-18T07:18:52.650Z,5.12
2023-04-18T07:21:55.963Z,5.05
2023-04-18T07:24:58.490Z,4.32
2023-04-18T07:28:00.622Z,4.50
2023-04-18T07:31:06.490Z,4.87
2023-04-18T07:34:09.136Z,4.75
2023-04-18T07:37:14.664Z,4.70
2023-04-18T07:40:17.126Z,4.30
2023-04-18T07:43:20.880Z,4.60
2023-04-18T07:46:23.229Z,4.20
2023-04-18T07:49:25.720Z,4.25
2023-04-18T07:52:27.822Z,4.00
2023-04-18T07:55:30.631Z,4.15
2023-04-18T07:58:34.620Z,3.80
2023-04-18T08:01:36.977Z,3.92
2023-04-18T08:04:39.531Z,4.30
2023-04-18T08:07:41.816Z,3.20
2023-04-18T08:10:44.361Z,3.50
2023-04-18T08:13:46.479Z,4.00
2023-04-18T08:16:48.968Z,3.55
2023-04-18T08:19:51.245Z,3.80
2023-04-18T08:23:06.057Z,3.55
2023-04-18T08:26:11.096Z,3.47
2023-04-18T08:29:13.770Z,3.25
2023-04-18T08:32:16.009Z,3.75
2023-04-18T08:35:18.370Z,3.60
2023-04-18T08:38:20.640Z,3.20
2023-04-18T08:41:24.103Z,3.15
2023-04-18T08:44:30.561Z,3.08
2023-04-18T08:47:35.424Z,3.17
2023-04-18T08:50:37.772Z,3.22
2023-04-18T08:53:42.046Z,3.25
2023-04-18T08:56:45.064Z,3.37
2023-04-18T08:59:49.638Z,3.30
2023-04-18T09:02:59.406Z,3.78
2023-04-18T09:06:18.821Z,3.00
2023-04-18T09:09:27.472Z,2.37
2023-04-18T09:12:30.041Z,2.20
2023-04-18T09:15:32.387Z,2.00
2023-04-18T09:18:35.159Z,2.00
2023-04-18T09:21:42.319Z,1.95
2023-04-18T09:24:55.396Z,2.25
2023-04-18T09:28:01.113Z,2.15
2023-04-18T09:31:12.852Z,2.12
2023-04-18T09:34:21.173Z,2.50
2023-04-18T09:37:25.030Z,2.53
2023-04-18T09:40:27.322Z,2.50
2023-04-18T09:43:29.728Z,1.90
2023-04-18T09:46:33.110Z,2.00
2023-04-18T09:49:35.663Z,2.03
2023-04-18T09:52:42.366Z,1.90
2023-04-18T09:55:45.791Z,2.30
2023-04-18T09:58:56.157Z,2.30
2023-04-18T10:02:02.149Z,2.35
2023-04-18T10:05:07.874Z,2.90
2023-04-18T10:08:10.598Z,2.83
2023-04-18T10:11:13.362Z,2.65
2023-04-18T10:14:16.754Z,2.60
2023-04-18T10:17:20.352Z,2.62
2023-04-18T10:20:24.829Z,2.67
2023-04-18T10:23:36.117Z,2.70
2023-04-18T10:26:47.592Z,2.60
2023-04-18T10:29:52.266Z,2.65
2023-04-18T10:32:55.667Z,3.03
2023-04-18T10:36:11.417Z,2.65
2023-04-18T10:39:22.311Z,2.40
2023-04-18T10:42:46.954Z,2.30
2023-04-18T10:46:20.175Z,2.50
2023-04-18T10:49:33.520Z,2.20
2023-04-18T10:52:35.721Z,2.33
2023-04-18T10:55:44.531Z,1.98
2023-04-18T10:58:51.240Z,2.12
2023-04-18T11:01:57.088Z,2.12
2023-04-18T11:05:06.894Z,2.45
2023-04-18T11:08:23.547Z,1.90
2023-04-18T11:11:25.757Z,2.20
2023-04-18T11:14:42.353Z,1.83
2023-04-18T11:17:44.673Z,1.80
2023-04-18T11:20:49.642Z,1.85
2023-04-18T11:23:51.822Z,1.83
2023-04-18T11:26:55.932Z,1.92
2023-04-18T11:29:58.439Z,1.77
2023-04-18T11:33:06.061Z,1.67
2023-04-18T11:36:08.544Z,1.83
2023-04-18T11:39:11.499Z,1.70
2023-04-18T11:42:14.902Z,2.30
2023-04-18T11:45:17.923Z,1.83
2023-04-18T11:48:20.144Z,2.00
2023-04-18T11:51:39.107Z,1.77
2023-04-18T11:54:43.578Z,1.70
2023-04-18T11:57:53.849Z,1.80
2023-04-18T12:00:56.259Z,1.77
2023-04-18T12:04:07.131Z,1.73
2023-04-18T12:07:09.490Z,1.92
2023-04-18T12:10:23.902Z,1.92
2023-04-18T12:13:31.570Z,2.05
2023-04-18T12:16:34.907Z,2.15
2023-04-18T12:19:37.874Z,2.03
2023-04-18T12:22:47.265Z,1.85
2023-04-18T12:25:58.923Z,2.10
2023-04-18T12:29:02.090Z,1.87
2023-04-18T12:32:04.559Z,1.73
2023-04-18T12:35:08.148Z,1.90
2023-04-18T12:38:10.280Z,2.17
2023-04-18T12:41:13.185Z,2.12
2023-04-18T12:44:15.679Z,2.05
2023-04-18T12:47:19.204Z,2.00
2023-04-18T12:50:25.414Z,2.08
2023-04-18T12:53:28.122Z,2.05
2023-04-18T12:56:30.256Z,1.77
2023-04-18T12:59:33.443Z,2.00
2023-04-18T13:02:37.293Z,2.28
2023-04-18T13:05:39.905Z,2.35
2023-04-18T13:08:42.955Z,2.17
2023-04-18T13:11:45.754Z,2.20
2023-04-18T13:14:48.498Z,1.58
2023-04-18T13:17:51.029Z,2.03
2023-04-18T13:20:54.160Z,1.85
2023-04-18T13:23:56.571Z,2.08
2023-04-18T13:26:59.519Z,2.20
2023-04-18T13:30:02.602Z,1.90
2023-04-18T13:33:05.108Z,2.10
2023-04-18T13:36:08.219Z,2.10
2023-04-18T13:39:14.953Z,2.03
2023-04-18T13:42:19.329Z,2.22
2023-04-18T13:45:21.648Z,2.25
2023-04-18T13:48:24.121Z,1.90
2023-04-18T13:51:26.476Z,2.35
2023-04-18T13:54:31.129Z,2.17
2023-04-18T13:57:33.560Z,2.10
2023-04-18T14:00:35.977Z,1.90
2023-04-18T14:03:39.956Z,2.05
2023-04-18T14:06:43.559Z,1.93
2023-04-18T14:09:48.030Z,1.80
2023-04-18T14:12:51.049Z,1.90
2023-04-18T14:15:54.057Z,2.17
2023-04-18T14:18:56.975Z,1.98
2023-04-18T14:21:59.351Z,2.17
2023-04-18T14:25:01.596Z,2.15
2023-04-18T14:28:08.612Z,2.00
2023-04-18T14:31:11.056Z,1.90
2023-04-18T14:34:13.517Z,2.28
2023-04-18T14:37:17.177Z,1.90
2023-04-18T14:40:20.465Z,2.22
2023-04-18T14:43:22.575Z,2.22
2023-04-18T14:46:25.302Z,1.90
2023-04-18T14:49:27.545Z,1.90
2023-04-18T14:52:29.891Z,1.80
2023-04-18T14:55:33.004Z,1.90
2023-04-18T14:58:36.190Z,1.75
2023-04-18T15:01:38.384Z,2.03
2023-04-18T15:04:41.042Z,2.30
2023-04-18T15:07:44.773Z,2.00
2023-04-18T15:10:47.519Z,3.55
2023-04-18T15:13:50.591Z,2.10
2023-04-18T15:16:53.047Z,2.20
2023-04-18T15:19:55.138Z,2.20
2023-04-18T15:22:57.499Z,2.12
2023-04-18T15:25:59.639Z,2.05
2023-04-18T15:29:03.788Z,1.83
